sensor_id;sensor_type;location;lat;lon;timestamp;temperature;humidity
40630;DHT22;26329;40.388;-3.710;2023-02-15T00:07:21;9.00;65.30
40630;DHT22;26329;40.388;-3.710;2023-02-15T00:17:23;9.00;65.40
40630;DHT22;26329;40.388;-3.710;2023-02-15T00:27:25;9.00;65.50
40630;DHT22;26329;40.388;-3.710;2023-02-15T00:37:26;9.00;65.20
40630;DHT22;26329;40.388;-3.710;2023-02-15T00:47:28;9.00;65.00
40630;DHT22;26329;40.388;-3.710;2023-02-15T00:57:30;9.00;65.00
40630;DHT22;26329;40.388;-3.710;2023-02-15T01:07:31;9.00;65.10
40630;DHT22;26329;40.388;-3.710;2023-02-15T01:17:33;9.00;64.90
40630;DHT22;26329;40.388;-3.710;2023-02-15T01:27:35;8.90;64.60
40630;DHT22;26329;40.388;-3.710;2023-02-15T01:37:36;8.80;65.10
40630;DHT22;26329;40.388;-3.710;2023-02-15T01:47:45;8.90;64.90
40630;DHT22;26329;40.388;-3.710;2023-02-15T01:57:50;8.80;65.00
40630;DHT22;26329;40.388;-3.710;2023-02-15T02:07:54;8.80;65.00
40630;DHT22;26329;40.388;-3.710;2023-02-15T02:18:16;8.70;64.90
40630;DHT22;26329;40.388;-3.710;2023-02-15T02:38:37;8.60;65.60
40630;DHT22;26329;40.388;-3.710;2023-02-15T02:48:43;8.70;65.30
40630;DHT22;26329;40.388;-3.710;2023-02-15T02:58:50;8.80;65.10
40630;DHT22;26329;40.388;-3.710;2023-02-15T03:09:06;8.70;65.40
40630;DHT22;26329;40.388;-3.710;2023-02-15T03:19:17;8.70;65.50
40630;DHT22;26329;40.388;-3.710;2023-02-15T03:29:32;8.80;65.30
40630;DHT22;26329;40.388;-3.710;2023-02-15T03:39:55;8.70;65.40
40630;DHT22;26329;40.388;-3.710;2023-02-15T03:50:08;8.80;65.30
40630;DHT22;26329;40.388;-3.710;2023-02-15T04:00:35;8.70;65.50
40630;DHT22;26329;40.388;-3.710;2023-02-15T04:10:57;8.70;65.50
40630;DHT22;26329;40.388;-3.710;2023-02-15T04:20:59;8.80;65.40
40630;DHT22;26329;40.388;-3.710;2023-02-15T04:31:20;8.80;65.50
40630;DHT22;26329;40.388;-3.710;2023-02-15T04:41:23;8.80;65.50
40630;DHT22;26329;40.388;-3.710;2023-02-15T04:51:24;8.70;65.70
40630;DHT22;26329;40.388;-3.710;2023-02-15T05:01:26;8.60;65.90
40630;DHT22;26329;40.388;-3.710;2023-02-15T05:11:28;8.70;65.50
40630;DHT22;26329;40.388;-3.710;2023-02-15T05:21:31;8.70;65.50
40630;DHT22;26329;40.388;-3.710;2023-02-15T05:31:32;8.70;65.50
40630;DHT22;26329;40.388;-3.710;2023-02-15T05:41:34;8.60;65.80
40630;DHT22;26329;40.388;-3.710;2023-02-15T05:51:36;8.70;65.50
40630;DHT22;26329;40.388;-3.710;2023-02-15T06:01:37;8.60;65.70
40630;DHT22;26329;40.388;-3.710;2023-02-15T06:11:38;8.50;65.90
40630;DHT22;26329;40.388;-3.710;2023-02-15T06:21:42;8.50;65.90
40630;DHT22;26329;40.388;-3.710;2023-02-15T06:31:43;8.40;66.00
40630;DHT22;26329;40.388;-3.710;2023-02-15T06:41:45;8.50;65.80
40630;DHT22;26329;40.388;-3.710;2023-02-15T06:51:47;8.40;66.00
40630;DHT22;26329;40.388;-3.710;2023-02-15T07:01:48;8.40;66.00
40630;DHT22;26329;40.388;-3.710;2023-02-15T07:11:53;8.50;66.30
40630;DHT22;26329;40.388;-3.710;2023-02-15T07:22:13;8.40;66.10
40630;DHT22;26329;40.388;-3.710;2023-02-15T07:32:15;8.40;66.10
40630;DHT22;26329;40.388;-3.710;2023-02-15T07:42:17;8.50;65.90
40630;DHT22;26329;40.388;-3.710;2023-02-15T07:52:20;8.50;66.00
40630;DHT22;26329;40.388;-3.710;2023-02-15T08:02:22;8.50;65.90
40630;DHT22;26329;40.388;-3.710;2023-02-15T08:12:26;8.60;65.60
40630;DHT22;26329;40.388;-3.710;2023-02-15T08:22:27;8.70;65.80
40630;DHT22;26329;40.388;-3.710;2023-02-15T08:32:30;8.80;65.60
40630;DHT22;26329;40.388;-3.710;2023-02-15T08:42:33;8.90;65.10
40630;DHT22;26329;40.388;-3.710;2023-02-15T08:52:34;9.00;64.80
40630;DHT22;26329;40.388;-3.710;2023-02-15T09:02:35;9.20;64.40
40630;DHT22;26329;40.388;-3.710;2023-02-15T09:12:37;9.40;63.40
40630;DHT22;26329;40.388;-3.710;2023-02-15T09:22:38;9.40;63.10
40630;DHT22;26329;40.388;-3.710;2023-02-15T09:32:40;9.50;62.50
40630;DHT22;26329;40.388;-3.710;2023-02-15T09:42:58;9.70;61.70
40630;DHT22;26329;40.388;-3.710;2023-02-15T10:03:41;10.30;60.80
40630;DHT22;26329;40.388;-3.710;2023-02-15T10:35:04;11.30;57.70
40630;DHT22;26329;40.388;-3.710;2023-02-15T10:45:20;11.80;56.90
40630;DHT22;26329;40.388;-3.710;2023-02-15T11:16:38;11.30;54.40
40630;DHT22;26329;40.388;-3.710;2023-02-15T11:26:49;11.60;52.90
40630;DHT22;26329;40.388;-3.710;2023-02-15T11:36:54;11.90;52.50
40630;DHT22;26329;40.388;-3.710;2023-02-15T11:46:56;11.70;52.30
40630;DHT22;26329;40.388;-3.710;2023-02-15T11:57:04;12.10;51.30
40630;DHT22;26329;40.388;-3.710;2023-02-15T12:07:21;12.20;50.70
40630;DHT22;26329;40.388;-3.710;2023-02-15T12:17:27;12.80;55.20
40630;DHT22;26329;40.388;-3.710;2023-02-15T12:27:33;13.00;48.40
40630;DHT22;26329;40.388;-3.710;2023-02-15T12:37:35;12.90;48.70
40630;DHT22;26329;40.388;-3.710;2023-02-15T12:47:37;12.80;48.30
40630;DHT22;26329;40.388;-3.710;2023-02-15T12:57:38;12.90;47.80
40630;DHT22;26329;40.388;-3.710;2023-02-15T13:07:48;13.00;47.50
40630;DHT22;26329;40.388;-3.710;2023-02-15T13:17:51;12.90;47.60
40630;DHT22;26329;40.388;-3.710;2023-02-15T14:19:37;13.50;46.00
40630;DHT22;26329;40.388;-3.710;2023-02-15T14:29:49;13.60;46.20
40630;DHT22;26329;40.388;-3.710;2023-02-15T14:40:07;13.60;45.90
